Terminal Aerodrome Forecast
Issued by NWS

Home | Current Version | Previous Version | Text Only | Print | Product List | Glossary On
Versions: 1 2 3 4 5 6 7 8 9 10 11 12
597
FTUS42 TJSJ 191141
TAFNCM
TAF
TNCM 191141Z 1912/2012 14004KT P6SM VCSH FEW017 BKN050
     FM191300 13007KT P6SM VCSH FEW030 SCT040=

USA.gov is the U.S. government's official web portal to all federal, state and local government web resources and services.